Airfield :
LOGIN :

Register | Disclaimer

   EN    FR    IT 

 










Legend :    VFR   Marginal VFR   IFR   Intensive IFR   Very Intensive IFR
Visi :
Ceiling :
>= 8 km
>= 3000ft
5 to 8 km
1000 to 3000 ft
1500m to 5 km
500 to 1000 ft
800 to 1500m
200 to 500 ft
< 800m
< 200 ft
Symbols :   Thunderstorms  Fog  Heavy snow  Heavy precipitations  Wind > 20 kt
SIGMETs :     Misc.  Thunderstorms  Icing  Turbulence  Mountain Waves  Volcanic Ashes






- Airport Elevation : 140 ft
- IATA code : NYO


ESKN - Skavsta

CURRENT METAR :
  • 301020Z 36012KT 330V060 9999 -SHSN FEW037 SCT053CB 01/M09 Q1024 R26/0///95

EXPIRED METARs :
  • 300950Z 35011KT 9999 VCSH SCT051CB 02/M11 Q1024 R26/0///95
  • 300920Z 34011KT 300V010 9999 SCT046 01/M10 Q1024 R26/0///95
  • 300850Z 36010G22KT 330V030 9999 FEW046 02/M10 Q1024 R26/0///95
  • 300820Z 36010KT 320V040 9999 FEW037 01/M08 Q1023 R26/0///95
  • 300750Z 01011G22KT 340V050 9999 SCT032 01/M07 Q1023 R26/0///95

TAF TAF ESKN
Valid from the 30 at 06:00 until the 31 at 06:00 UTC


300530Z 3006/3106 36012KT 9999 FEW030
BECMG 3021/3023 VRB02KT



MET'MAP, your aeronautical weather chart ! - Copyright ORBIFLY December 2007 - Disclaimer

ORBIFLY MET'MAP TEAM :

Programming & Development : Alexandra Zaïnal
Concept & original design : Baudouin d'Aumeries
Assistance for programming : Marc-Olivier Méhu
Technical & hardware support : Manuel Goepfert

Contact : metmap@orbifly.com




SOURCES & CREDITS :

   NOAA